<?xml version="1.0" encoding="UTF-8" standalone="no" ?>
<gpx xmlns="http://www.topografix.com/GPX/1/1" xmlns:xsi="http://www.w3.org/2001/XMLSchema-instance" xsi:schemaLocation="http://www.topografix.com/GPX/1/1 http://www.topografix.com/GPX/1/1/gpx.xsd" version="1.1" creator="VisuGPX - https://www.visugpx.com">
  <metadata>
    <name>83-Le Grand Brouis - Les Crêtes</name>
    <desc><![CDATA[BROUIS INVALIDENHITZEWEG]]></desc>
  </metadata>
  <trk>
    <name><![CDATA[2013-08-11 11:12 BROUIS]]></name>
    <desc><![CDATA[<h1>OruxMaps</h1><br /><hr align="center" width="480" style="height: 2px; width: 517px"/><h2>Name: 2013-08-11 11:12 BROUIS</h2><br /><p>Startzeit: 08/11/2013 11:12</p><p>Zielzeit: 08/11/2013 15:57</p><p>Distanz: 10,3 km (04:45)</p><p>Bewegungszeit: 03:14</p><p>Durchschnitts-Geschw.: 2,2 km/h</p><p>Netto Geschwindigkeit: 3,2 km/h</p><p>Max. Geschwindigkeit: 7 km/h</p><p>Minimale Höhe: 1119 m</p><p>Maximale Höhe: 1347 m</p><p>Steig-Geschw.: 161,7 m/h</p><p>Sink-Geschw.: -119,6 m/h</p><p>Aufstieg: 261 m</p><p>Abstieg: -264 m</p><p>Steigzeit: 01:37</p><p>Sinkzeit: 02:12</p><hr align="center" width="480" style="height: 2px; width: 517px"/>]]></desc>
    <trkseg>
      <trkpt lat="43.74937" lon="6.63052">
        <ele>1119.7</ele>
        <time>2013-08-11T09:12:14Z</time>
      </trkpt>
      <trkpt lat="43.74952" lon="6.63066">
        <ele>1130.7189</ele>
        <time>2013-08-11T09:15:48Z</time>
      </trkpt>
      <trkpt lat="43.74946" lon="6.63042">
        <ele>1130.3064</ele>
        <time>2013-08-11T09:16:54Z</time>
      </trkpt>
      <trkpt lat="43.74964" lon="6.63037">
        <ele>1131.9008</ele>
        <time>2013-08-11T09:17:42Z</time>
      </trkpt>
      <trkpt lat="43.74983" lon="6.63043">
        <ele>1133.3966</ele>
        <time>2013-08-11T09:18:03Z</time>
      </trkpt>
      <trkpt lat="43.74995" lon="6.63025">
        <ele>1128.4475</ele>
        <time>2013-08-11T09:18:58Z</time>
      </trkpt>
      <trkpt lat="43.75" lon="6.63">
        <ele>1125.0482</ele>
        <time>2013-08-11T09:19:16Z</time>
      </trkpt>
      <trkpt lat="43.75011" lon="6.6298">
        <ele>1123.6333</ele>
        <time>2013-08-11T09:19:43Z</time>
      </trkpt>
      <trkpt lat="43.75026" lon="6.62963">
        <ele>1123.1755</ele>
        <time>2013-08-11T09:20:06Z</time>
      </trkpt>
      <trkpt lat="43.7504" lon="6.62946">
        <ele>1122.5057</ele>
        <time>2013-08-11T09:20:32Z</time>
      </trkpt>
      <trkpt lat="43.75055" lon="6.62932">
        <ele>1121.8253</ele>
        <time>2013-08-11T09:20:50Z</time>
      </trkpt>
      <trkpt lat="43.75067" lon="6.62913">
        <ele>1123.2682</ele>
        <time>2013-08-11T09:21:08Z</time>
      </trkpt>
      <trkpt lat="43.75072" lon="6.62888">
        <ele>1128.4735</ele>
        <time>2013-08-11T09:21:31Z</time>
      </trkpt>
      <trkpt lat="43.75089" lon="6.62878">
        <ele>1129.0616</ele>
        <time>2013-08-11T09:21:53Z</time>
      </trkpt>
      <trkpt lat="43.75106" lon="6.62868">
        <ele>1130.4548</ele>
        <time>2013-08-11T09:23:18Z</time>
      </trkpt>
      <trkpt lat="43.75124" lon="6.62866">
        <ele>1130.9463</ele>
        <time>2013-08-11T09:23:37Z</time>
      </trkpt>
      <trkpt lat="43.75142" lon="6.62857">
        <ele>1130.9825</ele>
        <time>2013-08-11T09:24:52Z</time>
      </trkpt>
      <trkpt lat="43.75153" lon="6.62836">
        <ele>1130.7408</ele>
        <time>2013-08-11T09:25:14Z</time>
      </trkpt>
      <trkpt lat="43.7516" lon="6.62813">
        <ele>1129.6759</ele>
        <time>2013-08-11T09:25:36Z</time>
      </trkpt>
      <trkpt lat="43.75159" lon="6.62787">
        <ele>1130.1578</ele>
        <time>2013-08-11T09:25:59Z</time>
      </trkpt>
      <trkpt lat="43.75155" lon="6.62762">
        <ele>1130.5942</ele>
        <time>2013-08-11T09:26:18Z</time>
      </trkpt>
      <trkpt lat="43.75156" lon="6.62736">
        <ele>1131.4918</ele>
        <time>2013-08-11T09:26:35Z</time>
      </trkpt>
      <trkpt lat="43.75158" lon="6.6271">
        <ele>1132.5328</ele>
        <time>2013-08-11T09:26:49Z</time>
      </trkpt>
      <trkpt lat="43.75163" lon="6.62686">
        <ele>1134.3649</ele>
        <time>2013-08-11T09:27:06Z</time>
      </trkpt>
      <trkpt lat="43.75167" lon="6.62661">
        <ele>1136.9677</ele>
        <time>2013-08-11T09:27:32Z</time>
      </trkpt>
      <trkpt lat="43.75169" lon="6.62636">
        <ele>1137.3044</ele>
        <time>2013-08-11T09:27:48Z</time>
      </trkpt>
      <trkpt lat="43.7518" lon="6.62614">
        <ele>1137.5425</ele>
        <time>2013-08-11T09:28:04Z</time>
      </trkpt>
      <trkpt lat="43.75187" lon="6.6259">
        <ele>1139.1908</ele>
        <time>2013-08-11T09:28:22Z</time>
      </trkpt>
      <trkpt lat="43.75192" lon="6.62566">
        <ele>1141.6437</ele>
        <time>2013-08-11T09:29:09Z</time>
      </trkpt>
      <trkpt lat="43.75192" lon="6.62541">
        <ele>1141.5345</ele>
        <time>2013-08-11T09:29:34Z</time>
      </trkpt>
      <trkpt lat="43.75178" lon="6.62522">
        <ele>1139.8712</ele>
        <time>2013-08-11T09:29:48Z</time>
      </trkpt>
      <trkpt lat="43.7517" lon="6.625">
        <ele>1139.5514</ele>
        <time>2013-08-11T09:30:04Z</time>
      </trkpt>
      <trkpt lat="43.75163" lon="6.62476">
        <ele>1139.427</ele>
        <time>2013-08-11T09:30:27Z</time>
      </trkpt>
      <trkpt lat="43.7517" lon="6.62453">
        <ele>1141.8442</ele>
        <time>2013-08-11T09:30:46Z</time>
      </trkpt>
      <trkpt lat="43.75187" lon="6.62442">
        <ele>1145.2699</ele>
        <time>2013-08-11T09:31:14Z</time>
      </trkpt>
      <trkpt lat="43.75201" lon="6.62424">
        <ele>1148.7113</ele>
        <time>2013-08-11T09:31:41Z</time>
      </trkpt>
      <trkpt lat="43.75219" lon="6.62418">
        <ele>1150.6182</ele>
        <time>2013-08-11T09:32:01Z</time>
      </trkpt>
      <trkpt lat="43.75237" lon="6.62411">
        <ele>1152.8942</ele>
        <time>2013-08-11T09:32:16Z</time>
      </trkpt>
      <trkpt lat="43.75254" lon="6.62402">
        <ele>1154.7748</ele>
        <time>2013-08-11T09:32:42Z</time>
      </trkpt>
      <trkpt lat="43.75272" lon="6.62397">
        <ele>1155.3966</ele>
        <time>2013-08-11T09:32:58Z</time>
      </trkpt>
      <trkpt lat="43.75287" lon="6.62383">
        <ele>1156.6595</ele>
        <time>2013-08-11T09:33:16Z</time>
      </trkpt>
      <trkpt lat="43.7527" lon="6.62367">
        <ele>1164.7338</ele>
        <time>2013-08-11T09:35:06Z</time>
      </trkpt>
      <trkpt lat="43.75258" lon="6.62348">
        <ele>1165.057</ele>
        <time>2013-08-11T09:35:34Z</time>
      </trkpt>
      <trkpt lat="43.75242" lon="6.62336">
        <ele>1164.9684</ele>
        <time>2013-08-11T09:35:46Z</time>
      </trkpt>
      <trkpt lat="43.75224" lon="6.62339">
        <ele>1165.8387</ele>
        <time>2013-08-11T09:36:07Z</time>
      </trkpt>
      <trkpt lat="43.75206" lon="6.62329">
        <ele>1166.6869</ele>
        <time>2013-08-11T09:36:35Z</time>
      </trkpt>
      <trkpt lat="43.75198" lon="6.62307">
        <ele>1166.1487</ele>
        <time>2013-08-11T09:37:06Z</time>
      </trkpt>
      <trkpt lat="43.75188" lon="6.62286">
        <ele>1170.1576</ele>
        <time>2013-08-11T09:37:32Z</time>
      </trkpt>
      <trkpt lat="43.75169" lon="6.62285">
        <ele>1172.6772</ele>
        <time>2013-08-11T09:38:00Z</time>
      </trkpt>
      <trkpt lat="43.75162" lon="6.62261">
        <ele>1174.5415</ele>
        <time>2013-08-11T09:38:19Z</time>
      </trkpt>
      <trkpt lat="43.75151" lon="6.62241">
        <ele>1175.7592</ele>
        <time>2013-08-11T09:38:54Z</time>
      </trkpt>
      <trkpt lat="43.75138" lon="6.62223">
        <ele>1177.3776</ele>
        <time>2013-08-11T09:39:39Z</time>
      </trkpt>
      <trkpt lat="43.75121" lon="6.62233">
        <ele>1178.8169</ele>
        <time>2013-08-11T09:39:59Z</time>
      </trkpt>
      <trkpt lat="43.75104" lon="6.62223">
        <ele>1180.635</ele>
        <time>2013-08-11T09:40:33Z</time>
      </trkpt>
      <trkpt lat="43.75087" lon="6.6221">
        <ele>1184.1301</ele>
        <time>2013-08-11T09:41:32Z</time>
      </trkpt>
      <trkpt lat="43.75069" lon="6.62206">
        <ele>1185.3737</ele>
        <time>2013-08-11T09:41:54Z</time>
      </trkpt>
      <trkpt lat="43.75059" lon="6.62185">
        <ele>1186.6582</ele>
        <time>2013-08-11T09:42:32Z</time>
      </trkpt>
      <trkpt lat="43.7504" lon="6.6219">
        <ele>1186.792</ele>
        <time>2013-08-11T09:42:44Z</time>
      </trkpt>
      <trkpt lat="43.75022" lon="6.62186">
        <ele>1187.4141</ele>
        <time>2013-08-11T09:43:05Z</time>
      </trkpt>
      <trkpt lat="43.75007" lon="6.62172">
        <ele>1189.6622</ele>
        <time>2013-08-11T09:43:54Z</time>
      </trkpt>
      <trkpt lat="43.74989" lon="6.62165">
        <ele>1190.175</ele>
        <time>2013-08-11T09:44:06Z</time>
      </trkpt>
      <trkpt lat="43.74975" lon="6.6215">
        <ele>1190.2233</ele>
        <time>2013-08-11T09:44:17Z</time>
      </trkpt>
      <trkpt lat="43.74958" lon="6.62135">
        <ele>1190.1003</ele>
        <time>2013-08-11T09:44:43Z</time>
      </trkpt>
      <trkpt lat="43.74943" lon="6.62118">
        <ele>1191.1683</ele>
        <time>2013-08-11T09:45:07Z</time>
      </trkpt>
      <trkpt lat="43.74926" lon="6.6211">
        <ele>1195.626</ele>
        <time>2013-08-11T09:45:38Z</time>
      </trkpt>
      <trkpt lat="43.74914" lon="6.62092">
        <ele>1198.3491</ele>
        <time>2013-08-11T09:46:16Z</time>
      </trkpt>
      <trkpt lat="43.7491" lon="6.62067">
        <ele>1201.6346</ele>
        <time>2013-08-11T09:46:47Z</time>
      </trkpt>
      <trkpt lat="43.74895" lon="6.62051">
        <ele>1202.5007</ele>
        <time>2013-08-11T09:47:16Z</time>
      </trkpt>
      <trkpt lat="43.74878" lon="6.62041">
        <ele>1203.0409</ele>
        <time>2013-08-11T09:47:34Z</time>
      </trkpt>
      <trkpt lat="43.74895" lon="6.6205">
        <ele>1213.8121</ele>
        <time>2013-08-11T09:48:52Z</time>
      </trkpt>
      <trkpt lat="43.74914" lon="6.62049">
        <ele>1215.2179</ele>
        <time>2013-08-11T09:49:13Z</time>
      </trkpt>
      <trkpt lat="43.74933" lon="6.62055">
        <ele>1220.8204</ele>
        <time>2013-08-11T09:49:52Z</time>
      </trkpt>
      <trkpt lat="43.74951" lon="6.62061">
        <ele>1226.6333</ele>
        <time>2013-08-11T09:50:34Z</time>
      </trkpt>
      <trkpt lat="43.74969" lon="6.62064">
        <ele>1228.1995</ele>
        <time>2013-08-11T09:51:04Z</time>
      </trkpt>
      <trkpt lat="43.74988" lon="6.62066">
        <ele>1228.4352</ele>
        <time>2013-08-11T09:51:22Z</time>
      </trkpt>
      <trkpt lat="43.75006" lon="6.62061">
        <ele>1231.204</ele>
        <time>2013-08-11T09:51:49Z</time>
      </trkpt>
      <trkpt lat="43.75024" lon="6.6206">
        <ele>1234.0612</ele>
        <time>2013-08-11T09:52:18Z</time>
      </trkpt>
      <trkpt lat="43.75043" lon="6.6206">
        <ele>1236.4517</ele>
        <time>2013-08-11T09:52:39Z</time>
      </trkpt>
      <trkpt lat="43.75067" lon="6.62057">
        <ele>1239.783</ele>
        <time>2013-08-11T09:53:24Z</time>
      </trkpt>
      <trkpt lat="43.75087" lon="6.62058">
        <ele>1241.1934</ele>
        <time>2013-08-11T09:53:52Z</time>
      </trkpt>
      <trkpt lat="43.75105" lon="6.62054">
        <ele>1245.4935</ele>
        <time>2013-08-11T09:54:31Z</time>
      </trkpt>
      <trkpt lat="43.75124" lon="6.62054">
        <ele>1248.5529</ele>
        <time>2013-08-11T09:54:53Z</time>
      </trkpt>
      <trkpt lat="43.75142" lon="6.6206">
        <ele>1251.9983</ele>
        <time>2013-08-11T09:55:21Z</time>
      </trkpt>
      <trkpt lat="43.75159" lon="6.62068">
        <ele>1254.0662</ele>
        <time>2013-08-11T09:55:48Z</time>
      </trkpt>
      <trkpt lat="43.75177" lon="6.62074">
        <ele>1256.182</ele>
        <time>2013-08-11T09:56:20Z</time>
      </trkpt>
      <trkpt lat="43.75195" lon="6.62081">
        <ele>1258.1173</ele>
        <time>2013-08-11T09:56:46Z</time>
      </trkpt>
      <trkpt lat="43.75213" lon="6.62089">
        <ele>1267.6396</ele>
        <time>2013-08-11T09:58:35Z</time>
      </trkpt>
      <trkpt lat="43.75225" lon="6.62089">
        <ele>1271.5</ele>
        <time>2013-08-11T10:03:27Z</time>
      </trkpt>
      <trkpt lat="43.7524" lon="6.62074">
        <ele>1276.1033</ele>
        <time>2013-08-11T10:04:35Z</time>
      </trkpt>
      <trkpt lat="43.75258" lon="6.62066">
        <ele>1276.6165</ele>
        <time>2013-08-11T10:05:01Z</time>
      </trkpt>
      <trkpt lat="43.75272" lon="6.62082">
        <ele>1276.3125</ele>
        <time>2013-08-11T10:05:23Z</time>
      </trkpt>
      <trkpt lat="43.75286" lon="6.62099">
        <ele>1274.6455</ele>
        <time>2013-08-11T10:06:07Z</time>
      </trkpt>
      <trkpt lat="43.75304" lon="6.62101">
        <ele>1276.1274</ele>
        <time>2013-08-11T10:06:35Z</time>
      </trkpt>
      <trkpt lat="43.75322" lon="6.62099">
        <ele>1277.1666</ele>
        <time>2013-08-11T10:07:04Z</time>
      </trkpt>
      <trkpt lat="43.75341" lon="6.62097">
        <ele>1279.5128</ele>
        <time>2013-08-11T10:07:42Z</time>
      </trkpt>
      <trkpt lat="43.75359" lon="6.62094">
        <ele>1280.0892</ele>
        <time>2013-08-11T10:08:09Z</time>
      </trkpt>
      <trkpt lat="43.75377" lon="6.62089">
        <ele>1280.8799</ele>
        <time>2013-08-11T10:08:29Z</time>
      </trkpt>
      <trkpt lat="43.75395" lon="6.62083">
        <ele>1282.7554</ele>
        <time>2013-08-11T10:08:58Z</time>
      </trkpt>
      <trkpt lat="43.75412" lon="6.62072">
        <ele>1283.6532</ele>
        <time>2013-08-11T10:09:25Z</time>
      </trkpt>
      <trkpt lat="43.7543" lon="6.62069">
        <ele>1288.6132</ele>
        <time>2013-08-11T10:10:11Z</time>
      </trkpt>
      <trkpt lat="43.75448" lon="6.62065">
        <ele>1290.242</ele>
        <time>2013-08-11T10:10:34Z</time>
      </trkpt>
      <trkpt lat="43.75466" lon="6.6206">
        <ele>1291.4785</ele>
        <time>2013-08-11T10:11:19Z</time>
      </trkpt>
      <trkpt lat="43.75484" lon="6.6206">
        <ele>1292.7455</ele>
        <time>2013-08-11T10:11:41Z</time>
      </trkpt>
      <trkpt lat="43.75503" lon="6.62061">
        <ele>1294.175</ele>
        <time>2013-08-11T10:12:04Z</time>
      </trkpt>
      <trkpt lat="43.75522" lon="6.62061">
        <ele>1294.9606</ele>
        <time>2013-08-11T10:12:29Z</time>
      </trkpt>
      <trkpt lat="43.7554" lon="6.62067">
        <ele>1295.9567</ele>
        <time>2013-08-11T10:12:50Z</time>
      </trkpt>
      <trkpt lat="43.75558" lon="6.6207">
        <ele>1298.0282</ele>
        <time>2013-08-11T10:13:11Z</time>
      </trkpt>
      <trkpt lat="43.75576" lon="6.62065">
        <ele>1300.7026</ele>
        <time>2013-08-11T10:13:38Z</time>
      </trkpt>
      <trkpt lat="43.75594" lon="6.62062">
        <ele>1301.9187</ele>
        <time>2013-08-11T10:14:02Z</time>
      </trkpt>
      <trkpt lat="43.75612" lon="6.6207">
        <ele>1303.4595</ele>
        <time>2013-08-11T10:14:26Z</time>
      </trkpt>
      <trkpt lat="43.75628" lon="6.6208">
        <ele>1305.9891</ele>
        <time>2013-08-11T10:15:29Z</time>
      </trkpt>
      <trkpt lat="43.75646" lon="6.62073">
        <ele>1307.016</ele>
        <time>2013-08-11T10:15:52Z</time>
      </trkpt>
      <trkpt lat="43.75663" lon="6.62065">
        <ele>1309.0063</ele>
        <time>2013-08-11T10:16:18Z</time>
      </trkpt>
      <trkpt lat="43.75681" lon="6.62058">
        <ele>1310.8201</ele>
        <time>2013-08-11T10:16:39Z</time>
      </trkpt>
      <trkpt lat="43.75699" lon="6.62056">
        <ele>1312.6838</ele>
        <time>2013-08-11T10:17:03Z</time>
      </trkpt>
      <trkpt lat="43.75717" lon="6.62048">
        <ele>1314.9106</ele>
        <time>2013-08-11T10:17:27Z</time>
      </trkpt>
      <trkpt lat="43.75729" lon="6.62029">
        <ele>1321.0507</ele>
        <time>2013-08-11T10:18:47Z</time>
      </trkpt>
      <trkpt lat="43.75745" lon="6.62016">
        <ele>1324.8671</ele>
        <time>2013-08-11T10:19:14Z</time>
      </trkpt>
      <trkpt lat="43.7576" lon="6.62001">
        <ele>1329.044</ele>
        <time>2013-08-11T10:19:42Z</time>
      </trkpt>
      <trkpt lat="43.75769" lon="6.61979">
        <ele>1333.033</ele>
        <time>2013-08-11T10:20:13Z</time>
      </trkpt>
      <trkpt lat="43.75776" lon="6.61955">
        <ele>1337.3318</ele>
        <time>2013-08-11T10:20:51Z</time>
      </trkpt>
      <trkpt lat="43.75782" lon="6.61931">
        <ele>1338.9742</ele>
        <time>2013-08-11T10:21:16Z</time>
      </trkpt>
      <trkpt lat="43.75785" lon="6.61907">
        <ele>1341.7562</ele>
        <time>2013-08-11T10:23:41Z</time>
      </trkpt>
      <trkpt lat="43.7578" lon="6.61882">
        <ele>1341.0111</ele>
        <time>2013-08-11T10:24:00Z</time>
      </trkpt>
      <trkpt lat="43.75777" lon="6.61857">
        <ele>1340.8556</ele>
        <time>2013-08-11T10:24:22Z</time>
      </trkpt>
      <trkpt lat="43.75772" lon="6.61833">
        <ele>1341.7069</ele>
        <time>2013-08-11T10:24:43Z</time>
      </trkpt>
      <trkpt lat="43.75765" lon="6.61809">
        <ele>1342.5751</ele>
        <time>2013-08-11T10:25:02Z</time>
      </trkpt>
      <trkpt lat="43.75763" lon="6.61784">
        <ele>1343.2728</ele>
        <time>2013-08-11T10:25:24Z</time>
      </trkpt>
      <trkpt lat="43.75761" lon="6.61758">
        <ele>1343.7504</ele>
        <time>2013-08-11T10:25:41Z</time>
      </trkpt>
      <trkpt lat="43.75755" lon="6.61734">
        <ele>1343.1904</ele>
        <time>2013-08-11T10:26:11Z</time>
      </trkpt>
      <trkpt lat="43.75751" lon="6.61709">
        <ele>1344.2914</ele>
        <time>2013-08-11T10:26:32Z</time>
      </trkpt>
      <trkpt lat="43.75748" lon="6.61684">
        <ele>1344.2555</ele>
        <time>2013-08-11T10:26:49Z</time>
      </trkpt>
      <trkpt lat="43.75743" lon="6.61661">
        <ele>1344.1404</ele>
        <time>2013-08-11T10:27:07Z</time>
      </trkpt>
      <trkpt lat="43.75741" lon="6.61634">
        <ele>1343.9352</ele>
        <time>2013-08-11T10:27:24Z</time>
      </trkpt>
      <trkpt lat="43.75735" lon="6.61611">
        <ele>1344.0057</ele>
        <time>2013-08-11T10:27:41Z</time>
      </trkpt>
      <trkpt lat="43.75733" lon="6.61586">
        <ele>1343.6251</ele>
        <time>2013-08-11T10:27:58Z</time>
      </trkpt>
      <trkpt lat="43.75729" lon="6.61562">
        <ele>1345.8544</ele>
        <time>2013-08-11T10:28:50Z</time>
      </trkpt>
      <trkpt lat="43.75726" lon="6.61537">
        <ele>1343.2987</ele>
        <time>2013-08-11T10:33:05Z</time>
      </trkpt>
      <trkpt lat="43.75724" lon="6.61512">
        <ele>1342.7815</ele>
        <time>2013-08-11T10:33:25Z</time>
      </trkpt>
      <trkpt lat="43.7572" lon="6.61486">
        <ele>1342.2324</ele>
        <time>2013-08-11T10:33:45Z</time>
      </trkpt>
      <trkpt lat="43.75715" lon="6.61461">
        <ele>1341.9874</ele>
        <time>2013-08-11T10:34:02Z</time>
      </trkpt>
      <trkpt lat="43.75709" lon="6.61437">
        <ele>1342.1128</ele>
        <time>2013-08-11T10:34:22Z</time>
      </trkpt>
      <trkpt lat="43.75705" lon="6.61412">
        <ele>1341.4027</ele>
        <time>2013-08-11T10:34:47Z</time>
      </trkpt>
      <trkpt lat="43.75701" lon="6.61388">
        <ele>1341.7253</ele>
        <time>2013-08-11T10:35:14Z</time>
      </trkpt>
      <trkpt lat="43.75697" lon="6.61363">
        <ele>1341.0729</ele>
        <time>2013-08-11T10:36:50Z</time>
      </trkpt>
      <trkpt lat="43.75692" lon="6.61339">
        <ele>1339.8088</ele>
        <time>2013-08-11T10:37:09Z</time>
      </trkpt>
      <trkpt lat="43.75687" lon="6.61315">
        <ele>1339.4546</ele>
        <time>2013-08-11T10:37:27Z</time>
      </trkpt>
      <trkpt lat="43.75686" lon="6.6129">
        <ele>1340.0562</ele>
        <time>2013-08-11T10:37:45Z</time>
      </trkpt>
      <trkpt lat="43.75682" lon="6.61264">
        <ele>1339.8319</ele>
        <time>2013-08-11T10:38:03Z</time>
      </trkpt>
      <trkpt lat="43.75678" lon="6.61238">
        <ele>1339.7324</ele>
        <time>2013-08-11T10:38:20Z</time>
      </trkpt>
      <trkpt lat="43.75674" lon="6.61213">
        <ele>1339.731</ele>
        <time>2013-08-11T10:38:37Z</time>
      </trkpt>
      <trkpt lat="43.75671" lon="6.61188">
        <ele>1340.6633</ele>
        <time>2013-08-11T10:39:16Z</time>
      </trkpt>
      <trkpt lat="43.75664" lon="6.61165">
        <ele>1341.6909</ele>
        <time>2013-08-11T10:40:01Z</time>
      </trkpt>
      <trkpt lat="43.75659" lon="6.6114">
        <ele>1340.3132</ele>
        <time>2013-08-11T10:40:18Z</time>
      </trkpt>
      <trkpt lat="43.75657" lon="6.61114">
        <ele>1340.4869</ele>
        <time>2013-08-11T10:40:37Z</time>
      </trkpt>
      <trkpt lat="43.75648" lon="6.61091">
        <ele>1339.6919</ele>
        <time>2013-08-11T10:40:56Z</time>
      </trkpt>
      <trkpt lat="43.75643" lon="6.61066">
        <ele>1339.4305</ele>
        <time>2013-08-11T10:41:22Z</time>
      </trkpt>
      <trkpt lat="43.75634" lon="6.61043">
        <ele>1339.2308</ele>
        <time>2013-08-11T10:41:42Z</time>
      </trkpt>
      <trkpt lat="43.75627" lon="6.6102">
        <ele>1340.3456</ele>
        <time>2013-08-11T10:42:52Z</time>
      </trkpt>
      <trkpt lat="43.75613" lon="6.61002">
        <ele>1340.1925</ele>
        <time>2013-08-11T10:43:19Z</time>
      </trkpt>
      <trkpt lat="43.75605" lon="6.6098">
        <ele>1338.9209</ele>
        <time>2013-08-11T10:43:35Z</time>
      </trkpt>
      <trkpt lat="43.75598" lon="6.60955">
        <ele>1338.9255</ele>
        <time>2013-08-11T10:44:02Z</time>
      </trkpt>
      <trkpt lat="43.75589" lon="6.60933">
        <ele>1337.6144</ele>
        <time>2013-08-11T10:44:34Z</time>
      </trkpt>
      <trkpt lat="43.75581" lon="6.60911">
        <ele>1337.0616</ele>
        <time>2013-08-11T10:45:16Z</time>
      </trkpt>
      <trkpt lat="43.7557" lon="6.6089">
        <ele>1336.0791</ele>
        <time>2013-08-11T10:45:59Z</time>
      </trkpt>
      <trkpt lat="43.75561" lon="6.60868">
        <ele>1335.393</ele>
        <time>2013-08-11T10:46:23Z</time>
      </trkpt>
      <trkpt lat="43.75554" lon="6.60844">
        <ele>1334.1232</ele>
        <time>2013-08-11T10:46:40Z</time>
      </trkpt>
      <trkpt lat="43.75546" lon="6.60821">
        <ele>1334.0942</ele>
        <time>2013-08-11T10:46:54Z</time>
      </trkpt>
      <trkpt lat="43.75537" lon="6.608">
        <ele>1334.1147</ele>
        <time>2013-08-11T10:47:10Z</time>
      </trkpt>
      <trkpt lat="43.75533" lon="6.60774">
        <ele>1334.6969</ele>
        <time>2013-08-11T10:47:32Z</time>
      </trkpt>
      <trkpt lat="43.7553" lon="6.60749">
        <ele>1334.3887</ele>
        <time>2013-08-11T10:47:47Z</time>
      </trkpt>
      <trkpt lat="43.75529" lon="6.60723">
        <ele>1333.3928</ele>
        <time>2013-08-11T10:48:06Z</time>
      </trkpt>
      <trkpt lat="43.75524" lon="6.60698">
        <ele>1333.5758</ele>
        <time>2013-08-11T10:48:21Z</time>
      </trkpt>
      <trkpt lat="43.75519" lon="6.60673">
        <ele>1333.9264</ele>
        <time>2013-08-11T10:48:39Z</time>
      </trkpt>
      <trkpt lat="43.75514" lon="6.60649">
        <ele>1332.992</ele>
        <time>2013-08-11T10:48:55Z</time>
      </trkpt>
      <trkpt lat="43.75508" lon="6.60626">
        <ele>1332.5778</ele>
        <time>2013-08-11T10:49:13Z</time>
      </trkpt>
      <trkpt lat="43.75502" lon="6.60602">
        <ele>1334.4576</ele>
        <time>2013-08-11T10:49:31Z</time>
      </trkpt>
      <trkpt lat="43.75488" lon="6.60583">
        <ele>1333.4556</ele>
        <time>2013-08-11T10:49:48Z</time>
      </trkpt>
      <trkpt lat="43.75475" lon="6.60566">
        <ele>1333.2864</ele>
        <time>2013-08-11T10:50:06Z</time>
      </trkpt>
      <trkpt lat="43.7546" lon="6.6055">
        <ele>1332.8813</ele>
        <time>2013-08-11T10:50:23Z</time>
      </trkpt>
      <trkpt lat="43.75446" lon="6.60533">
        <ele>1332.3522</ele>
        <time>2013-08-11T10:50:43Z</time>
      </trkpt>
      <trkpt lat="43.75433" lon="6.60515">
        <ele>1333.3438</ele>
        <time>2013-08-11T10:51:00Z</time>
      </trkpt>
      <trkpt lat="43.7542" lon="6.60498">
        <ele>1333.6129</ele>
        <time>2013-08-11T10:51:18Z</time>
      </trkpt>
      <trkpt lat="43.75408" lon="6.60477">
        <ele>1333.5698</ele>
        <time>2013-08-11T10:51:35Z</time>
      </trkpt>
      <trkpt lat="43.75397" lon="6.60456">
        <ele>1335.3187</ele>
        <time>2013-08-11T10:52:05Z</time>
      </trkpt>
      <trkpt lat="43.75387" lon="6.60435">
        <ele>1338.5182</ele>
        <time>2013-08-11T10:52:36Z</time>
      </trkpt>
      <trkpt lat="43.75376" lon="6.60415">
        <ele>1338.2406</ele>
        <time>2013-08-11T10:53:09Z</time>
      </trkpt>
      <trkpt lat="43.75363" lon="6.60397">
        <ele>1337.975</ele>
        <time>2013-08-11T10:53:57Z</time>
      </trkpt>
      <trkpt lat="43.75355" lon="6.60374">
        <ele>1338.2886</ele>
        <time>2013-08-11T10:54:19Z</time>
      </trkpt>
      <trkpt lat="43.75348" lon="6.6035">
        <ele>1337.3488</ele>
        <time>2013-08-11T10:54:39Z</time>
      </trkpt>
      <trkpt lat="43.7534" lon="6.60328">
        <ele>1336.2915</ele>
        <time>2013-08-11T10:54:55Z</time>
      </trkpt>
      <trkpt lat="43.75329" lon="6.60308">
        <ele>1334.1589</ele>
        <time>2013-08-11T10:55:11Z</time>
      </trkpt>
      <trkpt lat="43.75321" lon="6.60284">
        <ele>1333.7587</ele>
        <time>2013-08-11T10:55:30Z</time>
      </trkpt>
      <trkpt lat="43.75307" lon="6.60268">
        <ele>1334.5955</ele>
        <time>2013-08-11T10:55:50Z</time>
      </trkpt>
      <trkpt lat="43.75294" lon="6.6025">
        <ele>1332.4178</ele>
        <time>2013-08-11T10:56:11Z</time>
      </trkpt>
      <trkpt lat="43.75282" lon="6.60231">
        <ele>1331.5897</ele>
        <time>2013-08-11T10:56:32Z</time>
      </trkpt>
      <trkpt lat="43.75267" lon="6.60214">
        <ele>1329.8673</ele>
        <time>2013-08-11T10:56:52Z</time>
      </trkpt>
      <trkpt lat="43.75259" lon="6.60189">
        <ele>1328.4634</ele>
        <time>2013-08-11T10:57:09Z</time>
      </trkpt>
      <trkpt lat="43.75248" lon="6.60168">
        <ele>1330.5352</ele>
        <time>2013-08-11T10:57:45Z</time>
      </trkpt>
      <trkpt lat="43.75238" lon="6.60148">
        <ele>1330.5272</ele>
        <time>2013-08-11T10:58:04Z</time>
      </trkpt>
      <trkpt lat="43.75228" lon="6.60126">
        <ele>1329.151</ele>
        <time>2013-08-11T10:58:22Z</time>
      </trkpt>
      <trkpt lat="43.75216" lon="6.60106">
        <ele>1330.2695</ele>
        <time>2013-08-11T10:59:14Z</time>
      </trkpt>
      <trkpt lat="43.75205" lon="6.60085">
        <ele>1326.9604</ele>
        <time>2013-08-11T11:20:16Z</time>
      </trkpt>
      <trkpt lat="43.75202" lon="6.60059">
        <ele>1325.7042</ele>
        <time>2013-08-11T11:20:38Z</time>
      </trkpt>
      <trkpt lat="43.75191" lon="6.6004">
        <ele>1326.2412</ele>
        <time>2013-08-11T11:21:00Z</time>
      </trkpt>
      <trkpt lat="43.7518" lon="6.6002">
        <ele>1324.4966</ele>
        <time>2013-08-11T11:21:22Z</time>
      </trkpt>
      <trkpt lat="43.75171" lon="6.59998">
        <ele>1323.1351</ele>
        <time>2013-08-11T11:21:44Z</time>
      </trkpt>
      <trkpt lat="43.75165" lon="6.59973">
        <ele>1323.1803</ele>
        <time>2013-08-11T11:22:02Z</time>
      </trkpt>
      <trkpt lat="43.75155" lon="6.59952">
        <ele>1322.4211</ele>
        <time>2013-08-11T11:22:22Z</time>
      </trkpt>
      <trkpt lat="43.75147" lon="6.5993">
        <ele>1322.7145</ele>
        <time>2013-08-11T11:22:41Z</time>
      </trkpt>
      <trkpt lat="43.75135" lon="6.5991">
        <ele>1322.5806</ele>
        <time>2013-08-11T11:22:59Z</time>
      </trkpt>
      <trkpt lat="43.75119" lon="6.59898">
        <ele>1323.7124</ele>
        <time>2013-08-11T11:23:31Z</time>
      </trkpt>
      <trkpt lat="43.75105" lon="6.59881">
        <ele>1322.7192</ele>
        <time>2013-08-11T11:23:53Z</time>
      </trkpt>
      <trkpt lat="43.75098" lon="6.59857">
        <ele>1322.7701</ele>
        <time>2013-08-11T11:24:13Z</time>
      </trkpt>
      <trkpt lat="43.7509" lon="6.59834">
        <ele>1323.043</ele>
        <time>2013-08-11T11:24:29Z</time>
      </trkpt>
      <trkpt lat="43.75085" lon="6.59809">
        <ele>1323.9967</ele>
        <time>2013-08-11T11:24:53Z</time>
      </trkpt>
      <trkpt lat="43.75071" lon="6.59792">
        <ele>1324.2147</ele>
        <time>2013-08-11T11:25:08Z</time>
      </trkpt>
      <trkpt lat="43.75062" lon="6.59768">
        <ele>1321.8512</ele>
        <time>2013-08-11T11:25:37Z</time>
      </trkpt>
      <trkpt lat="43.75058" lon="6.59744">
        <ele>1320.6238</ele>
        <time>2013-08-11T11:26:23Z</time>
      </trkpt>
      <trkpt lat="43.75049" lon="6.59721">
        <ele>1318.0953</ele>
        <time>2013-08-11T11:26:45Z</time>
      </trkpt>
      <trkpt lat="43.75038" lon="6.59699">
        <ele>1316.5358</ele>
        <time>2013-08-11T11:27:03Z</time>
      </trkpt>
      <trkpt lat="43.75032" lon="6.59675">
        <ele>1315.2253</ele>
        <time>2013-08-11T11:27:25Z</time>
      </trkpt>
      <trkpt lat="43.7503" lon="6.59649">
        <ele>1315.502</ele>
        <time>2013-08-11T11:27:41Z</time>
      </trkpt>
      <trkpt lat="43.75019" lon="6.59629">
        <ele>1312.9478</ele>
        <time>2013-08-11T11:27:59Z</time>
      </trkpt>
      <trkpt lat="43.75014" lon="6.59605">
        <ele>1312.0519</ele>
        <time>2013-08-11T11:28:20Z</time>
      </trkpt>
      <trkpt lat="43.75004" lon="6.59583">
        <ele>1312.26</ele>
        <time>2013-08-11T11:28:36Z</time>
      </trkpt>
      <trkpt lat="43.75004" lon="6.59558">
        <ele>1313.7727</ele>
        <time>2013-08-11T11:28:58Z</time>
      </trkpt>
      <trkpt lat="43.75004" lon="6.59533">
        <ele>1314.792</ele>
        <time>2013-08-11T11:29:51Z</time>
      </trkpt>
      <trkpt lat="43.74998" lon="6.59509">
        <ele>1313.5309</ele>
        <time>2013-08-11T11:30:10Z</time>
      </trkpt>
      <trkpt lat="43.74997" lon="6.59484">
        <ele>1312.6132</ele>
        <time>2013-08-11T11:30:27Z</time>
      </trkpt>
      <trkpt lat="43.74987" lon="6.59462">
        <ele>1310.0018</ele>
        <time>2013-08-11T11:30:44Z</time>
      </trkpt>
      <trkpt lat="43.74974" lon="6.59443">
        <ele>1306.9551</ele>
        <time>2013-08-11T11:31:01Z</time>
      </trkpt>
      <trkpt lat="43.74975" lon="6.59418">
        <ele>1305.1155</ele>
        <time>2013-08-11T11:31:21Z</time>
      </trkpt>
      <trkpt lat="43.74975" lon="6.59394">
        <ele>1305.7703</ele>
        <time>2013-08-11T11:31:42Z</time>
      </trkpt>
      <trkpt lat="43.74964" lon="6.59373">
        <ele>1306.3972</ele>
        <time>2013-08-11T11:32:10Z</time>
      </trkpt>
      <trkpt lat="43.74966" lon="6.59347">
        <ele>1306.0348</ele>
        <time>2013-08-11T11:32:28Z</time>
      </trkpt>
      <trkpt lat="43.74957" lon="6.59324">
        <ele>1304.533</ele>
        <time>2013-08-11T11:32:43Z</time>
      </trkpt>
      <trkpt lat="43.74947" lon="6.59304">
        <ele>1300.0526</ele>
        <time>2013-08-11T11:32:57Z</time>
      </trkpt>
      <trkpt lat="43.74946" lon="6.59278">
        <ele>1300.0645</ele>
        <time>2013-08-11T11:33:16Z</time>
      </trkpt>
      <trkpt lat="43.74939" lon="6.59255">
        <ele>1301.614</ele>
        <time>2013-08-11T11:33:35Z</time>
      </trkpt>
      <trkpt lat="43.74934" lon="6.5923">
        <ele>1302.8175</ele>
        <time>2013-08-11T11:33:53Z</time>
      </trkpt>
      <trkpt lat="43.74925" lon="6.59208">
        <ele>1301.3053</ele>
        <time>2013-08-11T11:34:12Z</time>
      </trkpt>
      <trkpt lat="43.74924" lon="6.59183">
        <ele>1300.9675</ele>
        <time>2013-08-11T11:35:08Z</time>
      </trkpt>
      <trkpt lat="43.74939" lon="6.592">
        <ele>1298.2413</ele>
        <time>2013-08-11T11:36:00Z</time>
      </trkpt>
      <trkpt lat="43.74951" lon="6.59219">
        <ele>1296.7928</ele>
        <time>2013-08-11T11:36:23Z</time>
      </trkpt>
      <trkpt lat="43.74966" lon="6.59235">
        <ele>1294.7665</ele>
        <time>2013-08-11T11:36:41Z</time>
      </trkpt>
      <trkpt lat="43.74971" lon="6.59259">
        <ele>1294.1255</ele>
        <time>2013-08-11T11:37:15Z</time>
      </trkpt>
      <trkpt lat="43.7498" lon="6.59282">
        <ele>1290.1908</ele>
        <time>2013-08-11T11:37:43Z</time>
      </trkpt>
      <trkpt lat="43.74993" lon="6.593">
        <ele>1288.0629</ele>
        <time>2013-08-11T11:38:05Z</time>
      </trkpt>
      <trkpt lat="43.75007" lon="6.59317">
        <ele>1287.6377</ele>
        <time>2013-08-11T11:38:25Z</time>
      </trkpt>
      <trkpt lat="43.74989" lon="6.59313">
        <ele>1285.4886</ele>
        <time>2013-08-11T11:39:22Z</time>
      </trkpt>
      <trkpt lat="43.74983" lon="6.59288">
        <ele>1286.3976</ele>
        <time>2013-08-11T11:39:50Z</time>
      </trkpt>
      <trkpt lat="43.74968" lon="6.59273">
        <ele>1285.3818</ele>
        <time>2013-08-11T11:40:16Z</time>
      </trkpt>
      <trkpt lat="43.7496" lon="6.5925">
        <ele>1286.129</ele>
        <time>2013-08-11T11:40:52Z</time>
      </trkpt>
      <trkpt lat="43.7495" lon="6.59228">
        <ele>1288.1742</ele>
        <time>2013-08-11T11:41:19Z</time>
      </trkpt>
      <trkpt lat="43.74942" lon="6.59206">
        <ele>1289.42</ele>
        <time>2013-08-11T11:41:46Z</time>
      </trkpt>
      <trkpt lat="43.74926" lon="6.59194">
        <ele>1292.8954</ele>
        <time>2013-08-11T11:42:36Z</time>
      </trkpt>
      <trkpt lat="43.74922" lon="6.59218">
        <ele>1292.966</ele>
        <time>2013-08-11T11:43:06Z</time>
      </trkpt>
      <trkpt lat="43.74929" lon="6.59242">
        <ele>1290.446</ele>
        <time>2013-08-11T11:43:36Z</time>
      </trkpt>
      <trkpt lat="43.74936" lon="6.59265">
        <ele>1291.6575</ele>
        <time>2013-08-11T11:43:58Z</time>
      </trkpt>
      <trkpt lat="43.74952" lon="6.59279">
        <ele>1292.6758</ele>
        <time>2013-08-11T11:44:17Z</time>
      </trkpt>
      <trkpt lat="43.74952" lon="6.59305">
        <ele>1293.6318</ele>
        <time>2013-08-11T11:44:33Z</time>
      </trkpt>
      <trkpt lat="43.74957" lon="6.59329">
        <ele>1295.3816</ele>
        <time>2013-08-11T11:44:51Z</time>
      </trkpt>
      <trkpt lat="43.74967" lon="6.59351">
        <ele>1296.8962</ele>
        <time>2013-08-11T11:45:13Z</time>
      </trkpt>
      <trkpt lat="43.74964" lon="6.59376">
        <ele>1299.032</ele>
        <time>2013-08-11T11:45:34Z</time>
      </trkpt>
      <trkpt lat="43.74968" lon="6.594">
        <ele>1302.7534</ele>
        <time>2013-08-11T11:46:02Z</time>
      </trkpt>
      <trkpt lat="43.7498" lon="6.59419">
        <ele>1304.1843</ele>
        <time>2013-08-11T11:46:25Z</time>
      </trkpt>
      <trkpt lat="43.74984" lon="6.59444">
        <ele>1304.1339</ele>
        <time>2013-08-11T11:46:49Z</time>
      </trkpt>
      <trkpt lat="43.74987" lon="6.59469">
        <ele>1304.6184</ele>
        <time>2013-08-11T11:47:12Z</time>
      </trkpt>
      <trkpt lat="43.74992" lon="6.59494">
        <ele>1304.2761</ele>
        <time>2013-08-11T11:47:33Z</time>
      </trkpt>
      <trkpt lat="43.74987" lon="6.59519">
        <ele>1304.8909</ele>
        <time>2013-08-11T11:47:55Z</time>
      </trkpt>
      <trkpt lat="43.74989" lon="6.59544">
        <ele>1304.7178</ele>
        <time>2013-08-11T11:48:17Z</time>
      </trkpt>
      <trkpt lat="43.75004" lon="6.59559">
        <ele>1306.2542</ele>
        <time>2013-08-11T11:48:35Z</time>
      </trkpt>
      <trkpt lat="43.75017" lon="6.59576">
        <ele>1306.9869</ele>
        <time>2013-08-11T11:48:50Z</time>
      </trkpt>
      <trkpt lat="43.75021" lon="6.59601">
        <ele>1309.3213</ele>
        <time>2013-08-11T11:49:06Z</time>
      </trkpt>
      <trkpt lat="43.75024" lon="6.59626">
        <ele>1312.4767</ele>
        <time>2013-08-11T11:49:24Z</time>
      </trkpt>
      <trkpt lat="43.7503" lon="6.5965">
        <ele>1313.6613</ele>
        <time>2013-08-11T11:49:43Z</time>
      </trkpt>
      <trkpt lat="43.75035" lon="6.59675">
        <ele>1313.8628</ele>
        <time>2013-08-11T11:50:02Z</time>
      </trkpt>
      <trkpt lat="43.75047" lon="6.59695">
        <ele>1313.4645</ele>
        <time>2013-08-11T11:50:17Z</time>
      </trkpt>
      <trkpt lat="43.75052" lon="6.5972">
        <ele>1313.678</ele>
        <time>2013-08-11T11:50:37Z</time>
      </trkpt>
      <trkpt lat="43.7506" lon="6.59742">
        <ele>1314.8066</ele>
        <time>2013-08-11T11:50:59Z</time>
      </trkpt>
      <trkpt lat="43.75067" lon="6.59766">
        <ele>1315.2057</ele>
        <time>2013-08-11T11:51:23Z</time>
      </trkpt>
      <trkpt lat="43.75075" lon="6.59789">
        <ele>1314.3002</ele>
        <time>2013-08-11T11:51:47Z</time>
      </trkpt>
      <trkpt lat="43.75084" lon="6.59811">
        <ele>1315.4359</ele>
        <time>2013-08-11T11:52:10Z</time>
      </trkpt>
      <trkpt lat="43.75093" lon="6.59833">
        <ele>1318.1045</ele>
        <time>2013-08-11T11:52:29Z</time>
      </trkpt>
      <trkpt lat="43.75106" lon="6.59851">
        <ele>1319.8905</ele>
        <time>2013-08-11T11:52:51Z</time>
      </trkpt>
      <trkpt lat="43.75117" lon="6.59871">
        <ele>1320.2518</ele>
        <time>2013-08-11T11:53:15Z</time>
      </trkpt>
      <trkpt lat="43.75132" lon="6.59888">
        <ele>1316.3025</ele>
        <time>2013-08-11T11:53:29Z</time>
      </trkpt>
      <trkpt lat="43.75144" lon="6.59908">
        <ele>1317.1366</ele>
        <time>2013-08-11T11:53:46Z</time>
      </trkpt>
      <trkpt lat="43.75156" lon="6.59929">
        <ele>1318.3129</ele>
        <time>2013-08-11T11:54:04Z</time>
      </trkpt>
      <trkpt lat="43.75163" lon="6.59953">
        <ele>1318.7424</ele>
        <time>2013-08-11T11:54:25Z</time>
      </trkpt>
      <trkpt lat="43.7517" lon="6.59976">
        <ele>1318.25</ele>
        <time>2013-08-11T11:54:46Z</time>
      </trkpt>
      <trkpt lat="43.75178" lon="6.59999">
        <ele>1321.4962</ele>
        <time>2013-08-11T11:55:20Z</time>
      </trkpt>
      <trkpt lat="43.7519" lon="6.60021">
        <ele>1320.5265</ele>
        <time>2013-08-11T11:55:45Z</time>
      </trkpt>
      <trkpt lat="43.75197" lon="6.60045">
        <ele>1319.6465</ele>
        <time>2013-08-11T11:56:04Z</time>
      </trkpt>
      <trkpt lat="43.75206" lon="6.60067">
        <ele>1318.7122</ele>
        <time>2013-08-11T11:56:25Z</time>
      </trkpt>
      <trkpt lat="43.7521" lon="6.60091">
        <ele>1328.3647</ele>
        <time>2013-08-11T11:57:45Z</time>
      </trkpt>
      <trkpt lat="43.75209" lon="6.6009">
        <ele>1328.8</ele>
        <time>2013-08-11T11:59:24Z</time>
      </trkpt>
      <trkpt lat="43.75246" lon="6.60092">
        <ele>1331.9498</ele>
        <time>2013-08-11T12:04:22Z</time>
      </trkpt>
      <trkpt lat="43.75227" lon="6.60093">
        <ele>1331.982</ele>
        <time>2013-08-11T12:04:33Z</time>
      </trkpt>
      <trkpt lat="43.75213" lon="6.60109">
        <ele>1331.5319</ele>
        <time>2013-08-11T12:06:40Z</time>
      </trkpt>
      <trkpt lat="43.75229" lon="6.60127">
        <ele>1331.4297</ele>
        <time>2013-08-11T12:07:01Z</time>
      </trkpt>
      <trkpt lat="43.75243" lon="6.60111">
        <ele>1330.6143</ele>
        <time>2013-08-11T12:08:13Z</time>
      </trkpt>
      <trkpt lat="43.75256" lon="6.60093">
        <ele>1330.8763</ele>
        <time>2013-08-11T12:08:25Z</time>
      </trkpt>
      <trkpt lat="43.75239" lon="6.60082">
        <ele>1330.5288</ele>
        <time>2013-08-11T12:08:58Z</time>
      </trkpt>
      <trkpt lat="43.7522" lon="6.60086">
        <ele>1330.923</ele>
        <time>2013-08-11T12:09:25Z</time>
      </trkpt>
      <trkpt lat="43.75208" lon="6.60106">
        <ele>1323.6367</ele>
        <time>2013-08-11T12:14:52Z</time>
      </trkpt>
      <trkpt lat="43.75221" lon="6.60125">
        <ele>1323.146</ele>
        <time>2013-08-11T12:15:20Z</time>
      </trkpt>
      <trkpt lat="43.75235" lon="6.60141">
        <ele>1323.2026</ele>
        <time>2013-08-11T12:15:44Z</time>
      </trkpt>
      <trkpt lat="43.75245" lon="6.60162">
        <ele>1323.1196</ele>
        <time>2013-08-11T12:16:05Z</time>
      </trkpt>
      <trkpt lat="43.75249" lon="6.60186">
        <ele>1322.4172</ele>
        <time>2013-08-11T12:16:24Z</time>
      </trkpt>
      <trkpt lat="43.75258" lon="6.60209">
        <ele>1320.8547</ele>
        <time>2013-08-11T12:16:52Z</time>
      </trkpt>
      <trkpt lat="43.75275" lon="6.60223">
        <ele>1317.868</ele>
        <time>2013-08-11T12:17:05Z</time>
      </trkpt>
      <trkpt lat="43.75284" lon="6.60245">
        <ele>1317.7468</ele>
        <time>2013-08-11T12:17:31Z</time>
      </trkpt>
      <trkpt lat="43.75293" lon="6.60268">
        <ele>1319.2554</ele>
        <time>2013-08-11T12:17:50Z</time>
      </trkpt>
      <trkpt lat="43.75299" lon="6.60292">
        <ele>1321.6389</ele>
        <time>2013-08-11T12:18:22Z</time>
      </trkpt>
      <trkpt lat="43.75315" lon="6.60306">
        <ele>1320.8317</ele>
        <time>2013-08-11T12:18:40Z</time>
      </trkpt>
      <trkpt lat="43.75323" lon="6.60329">
        <ele>1320.8739</ele>
        <time>2013-08-11T12:18:57Z</time>
      </trkpt>
      <trkpt lat="43.75338" lon="6.60345">
        <ele>1320.8514</ele>
        <time>2013-08-11T12:19:13Z</time>
      </trkpt>
      <trkpt lat="43.75353" lon="6.60359">
        <ele>1320.8395</ele>
        <time>2013-08-11T12:19:30Z</time>
      </trkpt>
      <trkpt lat="43.75365" lon="6.60378">
        <ele>1320.8527</ele>
        <time>2013-08-11T12:19:43Z</time>
      </trkpt>
      <trkpt lat="43.75371" lon="6.60402">
        <ele>1321.8148</ele>
        <time>2013-08-11T12:20:02Z</time>
      </trkpt>
      <trkpt lat="43.7538" lon="6.60425">
        <ele>1322.4054</ele>
        <time>2013-08-11T12:20:19Z</time>
      </trkpt>
      <trkpt lat="43.75387" lon="6.60448">
        <ele>1323.9341</ele>
        <time>2013-08-11T12:20:40Z</time>
      </trkpt>
      <trkpt lat="43.754" lon="6.60466">
        <ele>1326.7352</ele>
        <time>2013-08-11T12:20:57Z</time>
      </trkpt>
      <trkpt lat="43.75414" lon="6.60481">
        <ele>1327.8907</ele>
        <time>2013-08-11T12:21:10Z</time>
      </trkpt>
      <trkpt lat="43.75428" lon="6.60501">
        <ele>1328.2699</ele>
        <time>2013-08-11T12:21:28Z</time>
      </trkpt>
      <trkpt lat="43.75446" lon="6.60507">
        <ele>1326.7212</ele>
        <time>2013-08-11T12:21:38Z</time>
      </trkpt>
      <trkpt lat="43.75463" lon="6.60522">
        <ele>1329.1727</ele>
        <time>2013-08-11T12:21:51Z</time>
      </trkpt>
      <trkpt lat="43.75474" lon="6.60543">
        <ele>1329.9521</ele>
        <time>2013-08-11T12:22:08Z</time>
      </trkpt>
      <trkpt lat="43.75487" lon="6.60561">
        <ele>1330.8423</ele>
        <time>2013-08-11T12:22:28Z</time>
      </trkpt>
      <trkpt lat="43.75503" lon="6.60575">
        <ele>1330.8995</ele>
        <time>2013-08-11T12:22:47Z</time>
      </trkpt>
      <trkpt lat="43.75501" lon="6.60603">
        <ele>1330.085</ele>
        <time>2013-08-11T12:23:03Z</time>
      </trkpt>
      <trkpt lat="43.75509" lon="6.60626">
        <ele>1331.8071</ele>
        <time>2013-08-11T12:24:04Z</time>
      </trkpt>
      <trkpt lat="43.75511" lon="6.60651">
        <ele>1331.2107</ele>
        <time>2013-08-11T12:24:21Z</time>
      </trkpt>
      <trkpt lat="43.75515" lon="6.60677">
        <ele>1331.3431</ele>
        <time>2013-08-11T12:24:38Z</time>
      </trkpt>
      <trkpt lat="43.75524" lon="6.60698">
        <ele>1332.1958</ele>
        <time>2013-08-11T12:24:56Z</time>
      </trkpt>
      <trkpt lat="43.75527" lon="6.60723">
        <ele>1332.0574</ele>
        <time>2013-08-11T12:25:12Z</time>
      </trkpt>
      <trkpt lat="43.75525" lon="6.60748">
        <ele>1331.1555</ele>
        <time>2013-08-11T12:25:27Z</time>
      </trkpt>
      <trkpt lat="43.75529" lon="6.60774">
        <ele>1330.8772</ele>
        <time>2013-08-11T12:25:43Z</time>
      </trkpt>
      <trkpt lat="43.75538" lon="6.60795">
        <ele>1331.7587</ele>
        <time>2013-08-11T12:26:03Z</time>
      </trkpt>
      <trkpt lat="43.75543" lon="6.6082">
        <ele>1333.8358</ele>
        <time>2013-08-11T12:26:24Z</time>
      </trkpt>
      <trkpt lat="43.75557" lon="6.60836">
        <ele>1336.1627</ele>
        <time>2013-08-11T12:27:05Z</time>
      </trkpt>
      <trkpt lat="43.75563" lon="6.60859">
        <ele>1334.9895</ele>
        <time>2013-08-11T12:27:26Z</time>
      </trkpt>
      <trkpt lat="43.75573" lon="6.60881">
        <ele>1334.655</ele>
        <time>2013-08-11T12:27:44Z</time>
      </trkpt>
      <trkpt lat="43.75581" lon="6.60904">
        <ele>1335.4684</ele>
        <time>2013-08-11T12:28:08Z</time>
      </trkpt>
      <trkpt lat="43.75588" lon="6.60929">
        <ele>1335.4159</ele>
        <time>2013-08-11T12:28:27Z</time>
      </trkpt>
      <trkpt lat="43.75601" lon="6.60947">
        <ele>1335.7583</ele>
        <time>2013-08-11T12:28:43Z</time>
      </trkpt>
      <trkpt lat="43.75606" lon="6.60972">
        <ele>1336.0575</ele>
        <time>2013-08-11T12:29:00Z</time>
      </trkpt>
      <trkpt lat="43.75616" lon="6.60993">
        <ele>1336.4064</ele>
        <time>2013-08-11T12:29:16Z</time>
      </trkpt>
      <trkpt lat="43.7563" lon="6.6101">
        <ele>1336.5273</ele>
        <time>2013-08-11T12:29:36Z</time>
      </trkpt>
      <trkpt lat="43.75633" lon="6.61036">
        <ele>1337.1</ele>
        <time>2013-08-11T12:30:35Z</time>
      </trkpt>
      <trkpt lat="43.75636" lon="6.61061">
        <ele>1334.1804</ele>
        <time>2013-08-11T12:34:09Z</time>
      </trkpt>
      <trkpt lat="43.75643" lon="6.61085">
        <ele>1335.5564</ele>
        <time>2013-08-11T12:34:30Z</time>
      </trkpt>
      <trkpt lat="43.75654" lon="6.61106">
        <ele>1337.4866</ele>
        <time>2013-08-11T12:34:56Z</time>
      </trkpt>
      <trkpt lat="43.75655" lon="6.61131">
        <ele>1336.3778</ele>
        <time>2013-08-11T12:35:52Z</time>
      </trkpt>
      <trkpt lat="43.7566" lon="6.61156">
        <ele>1336.7206</ele>
        <time>2013-08-11T12:36:10Z</time>
      </trkpt>
      <trkpt lat="43.75664" lon="6.61181">
        <ele>1336.8813</ele>
        <time>2013-08-11T12:36:27Z</time>
      </trkpt>
      <trkpt lat="43.75671" lon="6.61205">
        <ele>1337.4084</ele>
        <time>2013-08-11T12:36:46Z</time>
      </trkpt>
      <trkpt lat="43.75674" lon="6.6123">
        <ele>1337.9857</ele>
        <time>2013-08-11T12:37:06Z</time>
      </trkpt>
      <trkpt lat="43.75672" lon="6.61255">
        <ele>1339.0007</ele>
        <time>2013-08-11T12:37:23Z</time>
      </trkpt>
      <trkpt lat="43.75676" lon="6.61281">
        <ele>1340.3224</ele>
        <time>2013-08-11T12:37:53Z</time>
      </trkpt>
      <trkpt lat="43.75682" lon="6.61306">
        <ele>1338.8395</ele>
        <time>2013-08-11T12:38:12Z</time>
      </trkpt>
      <trkpt lat="43.75685" lon="6.6133">
        <ele>1338.0432</ele>
        <time>2013-08-11T12:38:32Z</time>
      </trkpt>
      <trkpt lat="43.7569" lon="6.61354">
        <ele>1338.1964</ele>
        <time>2013-08-11T12:38:48Z</time>
      </trkpt>
      <trkpt lat="43.75697" lon="6.61378">
        <ele>1338.8994</ele>
        <time>2013-08-11T12:39:04Z</time>
      </trkpt>
      <trkpt lat="43.75702" lon="6.61402">
        <ele>1339.0387</ele>
        <time>2013-08-11T12:39:21Z</time>
      </trkpt>
      <trkpt lat="43.75705" lon="6.61427">
        <ele>1338.308</ele>
        <time>2013-08-11T12:39:38Z</time>
      </trkpt>
      <trkpt lat="43.7571" lon="6.61451">
        <ele>1338.8353</ele>
        <time>2013-08-11T12:39:55Z</time>
      </trkpt>
      <trkpt lat="43.75715" lon="6.61476">
        <ele>1339.4819</ele>
        <time>2013-08-11T12:40:12Z</time>
      </trkpt>
      <trkpt lat="43.75715" lon="6.61501">
        <ele>1339.2992</ele>
        <time>2013-08-11T12:41:05Z</time>
      </trkpt>
      <trkpt lat="43.75719" lon="6.61526">
        <ele>1339.7296</ele>
        <time>2013-08-11T12:41:43Z</time>
      </trkpt>
      <trkpt lat="43.75726" lon="6.6155">
        <ele>1340.3956</ele>
        <time>2013-08-11T12:42:02Z</time>
      </trkpt>
      <trkpt lat="43.75729" lon="6.61575">
        <ele>1341.1268</ele>
        <time>2013-08-11T12:42:21Z</time>
      </trkpt>
      <trkpt lat="43.7573" lon="6.616">
        <ele>1341.1694</ele>
        <time>2013-08-11T12:42:42Z</time>
      </trkpt>
      <trkpt lat="43.75731" lon="6.61626">
        <ele>1341.8809</ele>
        <time>2013-08-11T12:43:02Z</time>
      </trkpt>
      <trkpt lat="43.7574" lon="6.61647">
        <ele>1342.1356</ele>
        <time>2013-08-11T12:43:19Z</time>
      </trkpt>
      <trkpt lat="43.75745" lon="6.61672">
        <ele>1341.9977</ele>
        <time>2013-08-11T12:43:38Z</time>
      </trkpt>
      <trkpt lat="43.75742" lon="6.61697">
        <ele>1342.6116</ele>
        <time>2013-08-11T12:44:12Z</time>
      </trkpt>
      <trkpt lat="43.75755" lon="6.61715">
        <ele>1341.4705</ele>
        <time>2013-08-11T12:44:27Z</time>
      </trkpt>
      <trkpt lat="43.75763" lon="6.61739">
        <ele>1339.5908</ele>
        <time>2013-08-11T12:44:46Z</time>
      </trkpt>
      <trkpt lat="43.75758" lon="6.61763">
        <ele>1338.7283</ele>
        <time>2013-08-11T12:45:01Z</time>
      </trkpt>
      <trkpt lat="43.75761" lon="6.61788">
        <ele>1338.5571</ele>
        <time>2013-08-11T12:45:23Z</time>
      </trkpt>
      <trkpt lat="43.75776" lon="6.61804">
        <ele>1337.8519</ele>
        <time>2013-08-11T12:45:39Z</time>
      </trkpt>
      <trkpt lat="43.75785" lon="6.61827">
        <ele>1338.3839</ele>
        <time>2013-08-11T12:45:59Z</time>
      </trkpt>
      <trkpt lat="43.75783" lon="6.61852">
        <ele>1337.0645</ele>
        <time>2013-08-11T12:46:17Z</time>
      </trkpt>
      <trkpt lat="43.75784" lon="6.61877">
        <ele>1336.0475</ele>
        <time>2013-08-11T12:46:38Z</time>
      </trkpt>
      <trkpt lat="43.75783" lon="6.61902">
        <ele>1336.0356</ele>
        <time>2013-08-11T12:47:00Z</time>
      </trkpt>
      <trkpt lat="43.7578" lon="6.61928">
        <ele>1336.0719</ele>
        <time>2013-08-11T12:47:15Z</time>
      </trkpt>
      <trkpt lat="43.75779" lon="6.619">
        <ele>1342.0498</ele>
        <time>2013-08-11T12:48:48Z</time>
      </trkpt>
      <trkpt lat="43.75774" lon="6.61875">
        <ele>1343.2667</ele>
        <time>2013-08-11T12:49:05Z</time>
      </trkpt>
      <trkpt lat="43.75785" lon="6.61895">
        <ele>1346.8066</ele>
        <time>2013-08-11T12:51:59Z</time>
      </trkpt>
      <trkpt lat="43.75786" lon="6.61921">
        <ele>1347.3813</ele>
        <time>2013-08-11T12:52:20Z</time>
      </trkpt>
      <trkpt lat="43.75782" lon="6.61945">
        <ele>1346.8022</ele>
        <time>2013-08-11T12:52:55Z</time>
      </trkpt>
      <trkpt lat="43.75774" lon="6.61968">
        <ele>1344.9784</ele>
        <time>2013-08-11T12:53:47Z</time>
      </trkpt>
      <trkpt lat="43.75765" lon="6.6199">
        <ele>1342.7644</ele>
        <time>2013-08-11T12:54:21Z</time>
      </trkpt>
      <trkpt lat="43.75754" lon="6.6201">
        <ele>1339.748</ele>
        <time>2013-08-11T12:54:49Z</time>
      </trkpt>
      <trkpt lat="43.75739" lon="6.62027">
        <ele>1338.9531</ele>
        <time>2013-08-11T12:55:20Z</time>
      </trkpt>
      <trkpt lat="43.75727" lon="6.62046">
        <ele>1337.1489</ele>
        <time>2013-08-11T12:55:44Z</time>
      </trkpt>
      <trkpt lat="43.75709" lon="6.62053">
        <ele>1337.0463</ele>
        <time>2013-08-11T12:56:44Z</time>
      </trkpt>
      <trkpt lat="43.75692" lon="6.62064">
        <ele>1336.8213</ele>
        <time>2013-08-11T12:57:14Z</time>
      </trkpt>
      <trkpt lat="43.75674" lon="6.62068">
        <ele>1336.0219</ele>
        <time>2013-08-11T12:57:39Z</time>
      </trkpt>
      <trkpt lat="43.75656" lon="6.62076">
        <ele>1335.0227</ele>
        <time>2013-08-11T12:58:04Z</time>
      </trkpt>
      <trkpt lat="43.75637" lon="6.62084">
        <ele>1331.1753</ele>
        <time>2013-08-11T12:59:03Z</time>
      </trkpt>
      <trkpt lat="43.75621" lon="6.62072">
        <ele>1325.2814</ele>
        <time>2013-08-11T13:00:38Z</time>
      </trkpt>
      <trkpt lat="43.75603" lon="6.62067">
        <ele>1323.5657</ele>
        <time>2013-08-11T13:01:06Z</time>
      </trkpt>
      <trkpt lat="43.75585" lon="6.62072">
        <ele>1322.1265</ele>
        <time>2013-08-11T13:01:26Z</time>
      </trkpt>
      <trkpt lat="43.75567" lon="6.62071">
        <ele>1320.7163</ele>
        <time>2013-08-11T13:01:54Z</time>
      </trkpt>
      <trkpt lat="43.75548" lon="6.62067">
        <ele>1320.0969</ele>
        <time>2013-08-11T13:02:19Z</time>
      </trkpt>
      <trkpt lat="43.75528" lon="6.62062">
        <ele>1316.8231</ele>
        <time>2013-08-11T13:02:51Z</time>
      </trkpt>
      <trkpt lat="43.75509" lon="6.62063">
        <ele>1315.5808</ele>
        <time>2013-08-11T13:03:13Z</time>
      </trkpt>
      <trkpt lat="43.75491" lon="6.62065">
        <ele>1314.4484</ele>
        <time>2013-08-11T13:03:34Z</time>
      </trkpt>
      <trkpt lat="43.75473" lon="6.62067">
        <ele>1313.9712</ele>
        <time>2013-08-11T13:03:53Z</time>
      </trkpt>
      <trkpt lat="43.75454" lon="6.62068">
        <ele>1312.663</ele>
        <time>2013-08-11T13:04:18Z</time>
      </trkpt>
      <trkpt lat="43.75437" lon="6.62074">
        <ele>1311.09</ele>
        <time>2013-08-11T13:04:43Z</time>
      </trkpt>
      <trkpt lat="43.7542" lon="6.62084">
        <ele>1309.7761</ele>
        <time>2013-08-11T13:05:05Z</time>
      </trkpt>
      <trkpt lat="43.75402" lon="6.62092">
        <ele>1307.4923</ele>
        <time>2013-08-11T13:05:31Z</time>
      </trkpt>
      <trkpt lat="43.75383" lon="6.62091">
        <ele>1304.8672</ele>
        <time>2013-08-11T13:06:04Z</time>
      </trkpt>
      <trkpt lat="43.75368" lon="6.62104">
        <ele>1293.3248</ele>
        <time>2013-08-11T13:07:26Z</time>
      </trkpt>
      <trkpt lat="43.7535" lon="6.621">
        <ele>1291.8778</ele>
        <time>2013-08-11T13:12:28Z</time>
      </trkpt>
      <trkpt lat="43.75331" lon="6.621">
        <ele>1290.4623</ele>
        <time>2013-08-11T13:13:02Z</time>
      </trkpt>
      <trkpt lat="43.75312" lon="6.621">
        <ele>1289.1786</ele>
        <time>2013-08-11T13:13:23Z</time>
      </trkpt>
      <trkpt lat="43.75294" lon="6.62097">
        <ele>1288.4152</ele>
        <time>2013-08-11T13:13:45Z</time>
      </trkpt>
      <trkpt lat="43.7528" lon="6.62081">
        <ele>1286.1912</ele>
        <time>2013-08-11T13:14:09Z</time>
      </trkpt>
      <trkpt lat="43.75263" lon="6.62069">
        <ele>1284.6912</ele>
        <time>2013-08-11T13:14:31Z</time>
      </trkpt>
      <trkpt lat="43.75245" lon="6.62078">
        <ele>1283.7478</ele>
        <time>2013-08-11T13:15:04Z</time>
      </trkpt>
      <trkpt lat="43.7523" lon="6.62093">
        <ele>1282.4089</ele>
        <time>2013-08-11T13:15:28Z</time>
      </trkpt>
      <trkpt lat="43.75211" lon="6.6209">
        <ele>1278.7974</ele>
        <time>2013-08-11T13:16:01Z</time>
      </trkpt>
      <trkpt lat="43.75194" lon="6.6208">
        <ele>1279.174</ele>
        <time>2013-08-11T13:16:41Z</time>
      </trkpt>
      <trkpt lat="43.75176" lon="6.62083">
        <ele>1278.3009</ele>
        <time>2013-08-11T13:17:04Z</time>
      </trkpt>
      <trkpt lat="43.75159" lon="6.62072">
        <ele>1276.8905</ele>
        <time>2013-08-11T13:17:23Z</time>
      </trkpt>
      <trkpt lat="43.75142" lon="6.62062">
        <ele>1275.3544</ele>
        <time>2013-08-11T13:17:57Z</time>
      </trkpt>
      <trkpt lat="43.75123" lon="6.62063">
        <ele>1275.202</ele>
        <time>2013-08-11T13:18:18Z</time>
      </trkpt>
      <trkpt lat="43.75105" lon="6.62063">
        <ele>1271.8314</ele>
        <time>2013-08-11T13:19:07Z</time>
      </trkpt>
      <trkpt lat="43.75087" lon="6.62065">
        <ele>1268.6964</ele>
        <time>2013-08-11T13:19:34Z</time>
      </trkpt>
      <trkpt lat="43.75069" lon="6.62061">
        <ele>1268.5726</ele>
        <time>2013-08-11T13:20:09Z</time>
      </trkpt>
      <trkpt lat="43.7505" lon="6.6206">
        <ele>1265.7538</ele>
        <time>2013-08-11T13:20:39Z</time>
      </trkpt>
      <trkpt lat="43.75032" lon="6.62061">
        <ele>1261.9779</ele>
        <time>2013-08-11T13:21:20Z</time>
      </trkpt>
      <trkpt lat="43.75014" lon="6.6206">
        <ele>1259.3044</ele>
        <time>2013-08-11T13:21:58Z</time>
      </trkpt>
      <trkpt lat="43.74995" lon="6.62055">
        <ele>1257.6257</ele>
        <time>2013-08-11T13:22:29Z</time>
      </trkpt>
      <trkpt lat="43.74978" lon="6.62061">
        <ele>1253.2167</ele>
        <time>2013-08-11T13:22:59Z</time>
      </trkpt>
      <trkpt lat="43.7496" lon="6.62059">
        <ele>1252.3734</ele>
        <time>2013-08-11T13:23:36Z</time>
      </trkpt>
      <trkpt lat="43.74943" lon="6.6205">
        <ele>1251.0415</ele>
        <time>2013-08-11T13:24:09Z</time>
      </trkpt>
      <trkpt lat="43.74925" lon="6.62047">
        <ele>1247.9666</ele>
        <time>2013-08-11T13:24:37Z</time>
      </trkpt>
      <trkpt lat="43.74908" lon="6.62057">
        <ele>1246.3065</ele>
        <time>2013-08-11T13:24:53Z</time>
      </trkpt>
      <trkpt lat="43.74889" lon="6.62053">
        <ele>1244.3689</ele>
        <time>2013-08-11T13:25:23Z</time>
      </trkpt>
      <trkpt lat="43.74875" lon="6.62039">
        <ele>1241.4696</ele>
        <time>2013-08-11T13:25:49Z</time>
      </trkpt>
      <trkpt lat="43.74884" lon="6.6206">
        <ele>1226.9391</ele>
        <time>2013-08-11T13:27:12Z</time>
      </trkpt>
      <trkpt lat="43.749" lon="6.62072">
        <ele>1226.276</ele>
        <time>2013-08-11T13:27:42Z</time>
      </trkpt>
      <trkpt lat="43.74916" lon="6.62084">
        <ele>1221.6509</ele>
        <time>2013-08-11T13:28:07Z</time>
      </trkpt>
      <trkpt lat="43.74924" lon="6.62106">
        <ele>1221.5491</ele>
        <time>2013-08-11T13:28:38Z</time>
      </trkpt>
      <trkpt lat="43.74928" lon="6.62131">
        <ele>1218.6097</ele>
        <time>2013-08-11T13:29:04Z</time>
      </trkpt>
      <trkpt lat="43.74941" lon="6.6215">
        <ele>1217.6903</ele>
        <time>2013-08-11T13:29:29Z</time>
      </trkpt>
      <trkpt lat="43.74958" lon="6.62157">
        <ele>1217.7223</ele>
        <time>2013-08-11T13:29:53Z</time>
      </trkpt>
      <trkpt lat="43.74977" lon="6.62152">
        <ele>1217.4379</ele>
        <time>2013-08-11T13:30:28Z</time>
      </trkpt>
      <trkpt lat="43.74995" lon="6.62158">
        <ele>1212.4575</ele>
        <time>2013-08-11T13:30:45Z</time>
      </trkpt>
      <trkpt lat="43.75007" lon="6.62177">
        <ele>1208.2751</ele>
        <time>2013-08-11T13:31:29Z</time>
      </trkpt>
      <trkpt lat="43.75024" lon="6.62186">
        <ele>1207.7651</ele>
        <time>2013-08-11T13:32:08Z</time>
      </trkpt>
      <trkpt lat="43.75042" lon="6.62184">
        <ele>1206.4608</ele>
        <time>2013-08-11T13:32:35Z</time>
      </trkpt>
      <trkpt lat="43.7506" lon="6.62192">
        <ele>1207.8132</ele>
        <time>2013-08-11T13:33:04Z</time>
      </trkpt>
      <trkpt lat="43.75075" lon="6.62207">
        <ele>1206.4103</ele>
        <time>2013-08-11T13:33:25Z</time>
      </trkpt>
      <trkpt lat="43.75094" lon="6.62207">
        <ele>1204.5844</ele>
        <time>2013-08-11T13:33:55Z</time>
      </trkpt>
      <trkpt lat="43.75112" lon="6.62212">
        <ele>1201.5516</ele>
        <time>2013-08-11T13:34:20Z</time>
      </trkpt>
      <trkpt lat="43.7513" lon="6.62218">
        <ele>1200.6919</ele>
        <time>2013-08-11T13:34:40Z</time>
      </trkpt>
      <trkpt lat="43.75142" lon="6.62237">
        <ele>1201.1829</ele>
        <time>2013-08-11T13:34:58Z</time>
      </trkpt>
      <trkpt lat="43.75157" lon="6.62252">
        <ele>1200.1926</ele>
        <time>2013-08-11T13:35:25Z</time>
      </trkpt>
      <trkpt lat="43.75175" lon="6.62258">
        <ele>1197.9742</ele>
        <time>2013-08-11T13:35:59Z</time>
      </trkpt>
      <trkpt lat="43.75186" lon="6.62278">
        <ele>1188.1802</ele>
        <time>2013-08-11T13:40:48Z</time>
      </trkpt>
      <trkpt lat="43.75196" lon="6.62299">
        <ele>1184.6904</ele>
        <time>2013-08-11T13:43:30Z</time>
      </trkpt>
      <trkpt lat="43.75206" lon="6.6232">
        <ele>1184.0999</ele>
        <time>2013-08-11T13:43:59Z</time>
      </trkpt>
      <trkpt lat="43.75218" lon="6.62339">
        <ele>1182.1588</ele>
        <time>2013-08-11T13:44:15Z</time>
      </trkpt>
      <trkpt lat="43.75233" lon="6.62354">
        <ele>1182.1279</ele>
        <time>2013-08-11T13:44:37Z</time>
      </trkpt>
      <trkpt lat="43.7525" lon="6.62364">
        <ele>1181.1484</ele>
        <time>2013-08-11T13:45:02Z</time>
      </trkpt>
      <trkpt lat="43.75268" lon="6.62366">
        <ele>1179.5067</ele>
        <time>2013-08-11T13:45:21Z</time>
      </trkpt>
      <trkpt lat="43.75286" lon="6.62372">
        <ele>1175.5743</ele>
        <time>2013-08-11T13:45:43Z</time>
      </trkpt>
      <trkpt lat="43.75275" lon="6.62392">
        <ele>1174.0153</ele>
        <time>2013-08-11T13:46:44Z</time>
      </trkpt>
      <trkpt lat="43.75257" lon="6.624">
        <ele>1172.7339</ele>
        <time>2013-08-11T13:47:09Z</time>
      </trkpt>
      <trkpt lat="43.75243" lon="6.62415">
        <ele>1168.7482</ele>
        <time>2013-08-11T13:47:21Z</time>
      </trkpt>
      <trkpt lat="43.75223" lon="6.62418">
        <ele>1168.3994</ele>
        <time>2013-08-11T13:48:19Z</time>
      </trkpt>
      <trkpt lat="43.75205" lon="6.62425">
        <ele>1168.3981</ele>
        <time>2013-08-11T13:48:48Z</time>
      </trkpt>
      <trkpt lat="43.75189" lon="6.62435">
        <ele>1166.9274</ele>
        <time>2013-08-11T13:49:14Z</time>
      </trkpt>
      <trkpt lat="43.75174" lon="6.62452">
        <ele>1163.2413</ele>
        <time>2013-08-11T13:49:30Z</time>
      </trkpt>
      <trkpt lat="43.75178" lon="6.62477">
        <ele>1162.3156</ele>
        <time>2013-08-11T13:49:57Z</time>
      </trkpt>
      <trkpt lat="43.75185" lon="6.62501">
        <ele>1163.4855</ele>
        <time>2013-08-11T13:50:15Z</time>
      </trkpt>
      <trkpt lat="43.75191" lon="6.62526">
        <ele>1163.4539</ele>
        <time>2013-08-11T13:50:51Z</time>
      </trkpt>
      <trkpt lat="43.75197" lon="6.62551">
        <ele>1162.3734</ele>
        <time>2013-08-11T13:51:11Z</time>
      </trkpt>
      <trkpt lat="43.75202" lon="6.62575">
        <ele>1160.7516</ele>
        <time>2013-08-11T13:51:32Z</time>
      </trkpt>
      <trkpt lat="43.75192" lon="6.62596">
        <ele>1155.9581</ele>
        <time>2013-08-11T13:51:45Z</time>
      </trkpt>
      <trkpt lat="43.75182" lon="6.62619">
        <ele>1156.2579</ele>
        <time>2013-08-11T13:52:04Z</time>
      </trkpt>
      <trkpt lat="43.75177" lon="6.62644">
        <ele>1155.1146</ele>
        <time>2013-08-11T13:52:30Z</time>
      </trkpt>
      <trkpt lat="43.75172" lon="6.62669">
        <ele>1154.8448</ele>
        <time>2013-08-11T13:52:49Z</time>
      </trkpt>
      <trkpt lat="43.75167" lon="6.62693">
        <ele>1154.609</ele>
        <time>2013-08-11T13:53:09Z</time>
      </trkpt>
      <trkpt lat="43.75168" lon="6.62718">
        <ele>1155.6128</ele>
        <time>2013-08-11T13:53:28Z</time>
      </trkpt>
      <trkpt lat="43.75171" lon="6.62743">
        <ele>1155.305</ele>
        <time>2013-08-11T13:53:44Z</time>
      </trkpt>
      <trkpt lat="43.75174" lon="6.62768">
        <ele>1154.8108</ele>
        <time>2013-08-11T13:54:01Z</time>
      </trkpt>
      <trkpt lat="43.75165" lon="6.62792">
        <ele>1150.7194</ele>
        <time>2013-08-11T13:54:15Z</time>
      </trkpt>
      <trkpt lat="43.75157" lon="6.62814">
        <ele>1144.4539</ele>
        <time>2013-08-11T13:54:32Z</time>
      </trkpt>
      <trkpt lat="43.75147" lon="6.62835">
        <ele>1143.12</ele>
        <time>2013-08-11T13:54:50Z</time>
      </trkpt>
      <trkpt lat="43.75137" lon="6.62856">
        <ele>1142.21</ele>
        <time>2013-08-11T13:55:06Z</time>
      </trkpt>
      <trkpt lat="43.75121" lon="6.62867">
        <ele>1140.4989</ele>
        <time>2013-08-11T13:55:21Z</time>
      </trkpt>
      <trkpt lat="43.75102" lon="6.62873">
        <ele>1138.311</ele>
        <time>2013-08-11T13:55:40Z</time>
      </trkpt>
      <trkpt lat="43.75084" lon="6.62878">
        <ele>1134.6697</ele>
        <time>2013-08-11T13:56:31Z</time>
      </trkpt>
      <trkpt lat="43.75069" lon="6.62892">
        <ele>1133.8049</ele>
        <time>2013-08-11T13:56:49Z</time>
      </trkpt>
      <trkpt lat="43.75064" lon="6.62916">
        <ele>1132.1351</ele>
        <time>2013-08-11T13:57:13Z</time>
      </trkpt>
      <trkpt lat="43.75052" lon="6.62935">
        <ele>1131.3376</ele>
        <time>2013-08-11T13:57:30Z</time>
      </trkpt>
    </trkseg>
  </trk>
</gpx>